createdAt,value
2018-06-17T00:01:31.607Z,97.40
2018-06-17T00:04:00.836Z,97.40
2018-06-17T00:06:29.429Z,97.70
2018-06-17T00:08:58.568Z,97.70
2018-06-17T00:11:27.138Z,97.90
2018-06-17T00:13:56.360Z,98.00
2018-06-17T00:16:24.816Z,98.20
2018-06-17T00:18:53.802Z,98.80
2018-06-17T00:21:22.485Z,98.90
2018-06-17T00:23:52.202Z,99.50
2018-06-17T00:26:20.648Z,99.30
2018-06-17T00:28:49.183Z,99.40
2018-06-17T00:31:17.742Z,99.60
2018-06-17T00:33:46.295Z,99.90
2018-06-17T00:36:15.549Z,99.90
2018-06-17T00:38:44.099Z,99.90
2018-06-17T00:41:12.753Z,99.90
2018-06-17T00:43:41.253Z,99.90
2018-06-17T00:46:10.279Z,99.90
2018-06-17T00:48:38.769Z,99.90
2018-06-17T00:51:07.281Z,99.90
2018-06-17T00:53:35.781Z,99.80
2018-06-17T00:56:04.867Z,99.30
2018-06-17T00:58:33.343Z,99.10
2018-06-17T01:01:01.805Z,99.60
2018-06-17T01:03:31.006Z,99.70
2018-06-17T01:05:59.573Z,99.60
2018-06-17T01:08:28.073Z,99.60
2018-06-17T01:10:56.599Z,99.90
2018-06-17T01:13:25.068Z,99.90
2018-06-17T01:15:53.545Z,99.90
2018-06-17T01:18:22.185Z,99.90
2018-06-17T01:20:50.806Z,99.90
2018-06-17T01:23:19.950Z,99.90
2018-06-17T01:25:48.390Z,99.90
2018-06-17T01:28:17.526Z,99.90
2018-06-17T01:30:46.067Z,99.90
2018-06-17T01:33:15.686Z,99.90
2018-06-17T01:35:44.226Z,99.90
2018-06-17T01:38:12.748Z,99.90
2018-06-17T01:40:41.186Z,99.90
2018-06-17T01:43:09.651Z,99.90
2018-06-17T01:45:38.154Z,99.90
2018-06-17T01:48:06.689Z,99.90
2018-06-17T01:50:36.344Z,99.90
2018-06-17T01:53:04.792Z,99.90
2018-06-17T01:55:33.290Z,99.90
2018-06-17T01:58:01.873Z,99.90
2018-06-17T02:00:30.318Z,99.90
2018-06-17T02:03:03.377Z,99.90
2018-06-17T02:05:37.154Z,99.90
2018-06-17T02:08:10.943Z,99.90
2018-06-17T02:11:48.791Z,99.90
2018-06-17T02:14:22.527Z,99.90
2018-06-17T02:16:51.526Z,99.90
2018-06-17T02:19:19.939Z,99.90
2018-06-17T02:21:49.187Z,99.90
2018-06-17T02:24:17.641Z,99.90
2018-06-17T02:26:46.101Z,99.90
2018-06-17T02:29:14.553Z,99.90
2018-06-17T02:31:43.105Z,99.90
2018-06-17T02:34:11.634Z,99.90
2018-06-17T02:36:40.147Z,99.90
2018-06-17T02:39:09.599Z,99.90
2018-06-17T02:41:38.387Z,99.90
2018-06-17T02:44:07.035Z,99.90
2018-06-17T02:46:40.814Z,99.90
2018-06-17T02:49:44.309Z,99.90
2018-06-17T02:52:18.088Z,99.90
2018-06-17T02:54:47.369Z,99.90
2018-06-17T02:57:17.993Z,99.90
2018-06-17T02:59:47.233Z,99.90
2018-06-17T03:02:15.884Z,99.90
2018-06-17T03:04:44.573Z,99.90
2018-06-17T03:07:13.169Z,99.90
2018-06-17T03:09:42.303Z,99.90
2018-06-17T03:12:10.750Z,99.90
2018-06-17T03:14:39.293Z,99.90
2018-06-17T03:17:07.796Z,99.90
2018-06-17T03:19:36.934Z,99.90
2018-06-17T03:22:05.504Z,99.90
2018-06-17T03:24:39.438Z,99.90
2018-06-17T03:27:13.861Z,99.90
2018-06-17T03:29:47.662Z,99.90
2018-06-17T03:32:21.331Z,99.90
2018-06-17T03:36:56.211Z,99.90
2018-06-17T03:39:24.628Z,99.90
2018-06-17T03:41:53.828Z,99.90
2018-06-17T03:44:22.307Z,99.90
2018-06-17T03:46:50.750Z,99.90
2018-06-17T03:49:19.282Z,99.90
2018-06-17T03:51:47.765Z,99.90
2018-06-17T03:54:16.328Z,99.90
2018-06-17T03:56:44.758Z,99.90
2018-06-17T03:59:13.239Z,99.90
2018-06-17T04:01:41.717Z,99.90
2018-06-17T04:04:10.292Z,99.90
2018-06-17T04:06:39.445Z,99.90
2018-06-17T04:09:08.553Z,99.90
2018-06-17T04:11:37.318Z,99.90
2018-06-17T04:14:05.778Z,99.90
2018-06-17T04:16:34.381Z,99.90
2018-06-17T04:19:02.834Z,99.90
2018-06-17T04:21:31.318Z,99.90
2018-06-17T04:23:59.750Z,99.90
2018-06-17T04:26:28.322Z,99.90
2018-06-17T04:28:56.753Z,99.90
2018-06-17T04:31:25.309Z,99.90
2018-06-17T04:33:53.782Z,99.90
2018-06-17T04:36:22.399Z,99.90
2018-06-17T04:38:51.668Z,99.90
2018-06-17T04:41:20.661Z,99.90
2018-06-17T04:43:49.147Z,99.90
2018-06-17T04:46:17.642Z,99.90
2018-06-17T04:48:46.732Z,99.90
2018-06-17T04:51:15.262Z,99.90
2018-06-17T04:53:43.710Z,99.90
2018-06-17T04:56:12.272Z,99.90
2018-06-17T04:58:41.547Z,99.90
2018-06-17T05:01:10.023Z,99.90
2018-06-17T05:03:38.578Z,99.90
2018-06-17T05:06:08.245Z,99.80
2018-06-17T05:08:37.311Z,99.60
2018-06-17T05:11:05.832Z,99.20
2018-06-17T05:13:34.214Z,99.70
2018-06-17T05:16:02.756Z,99.20
2018-06-17T05:18:31.413Z,99.40
2018-06-17T05:20:59.970Z,98.80
2018-06-17T05:23:28.913Z,98.70
2018-06-17T05:25:57.377Z,98.60
2018-06-17T05:28:25.854Z,98.80
2018-06-17T05:30:54.428Z,98.60
2018-06-17T05:33:22.872Z,98.80
2018-06-17T05:35:51.442Z,99.30
2018-06-17T05:38:19.918Z,99.60
2018-06-17T05:40:48.554Z,99.70
2018-06-17T05:43:17.150Z,99.90
2018-06-17T05:45:45.633Z,99.90
2018-06-17T05:48:14.218Z,99.90
2018-06-17T05:50:42.659Z,99.90
2018-06-17T05:53:11.793Z,99.90
2018-06-17T05:55:40.292Z,99.90
2018-06-17T05:58:08.702Z,99.90
2018-06-17T06:00:37.224Z,99.90
2018-06-17T06:03:05.756Z,99.90
2018-06-17T06:05:34.247Z,99.90
2018-06-17T06:08:03.340Z,99.90
2018-06-17T06:10:31.754Z,99.90
2018-06-17T06:13:00.674Z,99.90
2018-06-17T06:15:29.190Z,99.90
2018-06-17T06:17:57.676Z,99.90
2018-06-17T06:20:26.298Z,99.90
2018-06-17T06:22:55.578Z,99.90
2018-06-17T06:25:24.217Z,99.90
2018-06-17T06:27:52.667Z,99.90
2018-06-17T06:30:21.305Z,99.90
2018-06-17T06:32:49.827Z,99.90
2018-06-17T06:35:18.311Z,99.90
2018-06-17T06:37:46.895Z,99.90
2018-06-17T06:40:15.409Z,99.90
2018-06-17T06:42:43.833Z,99.90
2018-06-17T06:45:12.315Z,99.90
2018-06-17T06:47:40.948Z,99.90
2018-06-17T06:50:09.563Z,99.90
2018-06-17T06:52:38.018Z,99.90
2018-06-17T06:55:06.586Z,99.90
2018-06-17T06:57:36.479Z,99.90
2018-06-17T07:00:05.301Z,99.90
2018-06-17T07:02:45.217Z,99.90
2018-06-17T07:05:24.970Z,99.90
2018-06-17T07:08:04.571Z,99.90
2018-06-17T07:10:33.100Z,99.90
2018-06-17T07:13:02.536Z,99.90
2018-06-17T07:15:41.994Z,99.90
2018-06-17T07:18:37.843Z,99.90
2018-06-17T07:21:06.602Z,99.90
2018-06-17T07:23:35.800Z,99.50
2018-06-17T07:26:46.075Z,98.70
2018-06-17T07:29:30.098Z,99.00
2018-06-17T07:31:58.621Z,98.70
2018-06-17T07:34:27.895Z,98.20
2018-06-17T07:36:56.400Z,98.30
2018-06-17T07:41:33.292Z,97.60
2018-06-17T07:44:02.450Z,97.60
2018-06-17T07:46:30.937Z,97.60
2018-06-17T07:49:40.570Z,97.10
2018-06-17T07:52:20.590Z,96.90
2018-06-17T07:54:50.092Z,96.00
2018-06-17T07:57:19.815Z,95.50
2018-06-17T07:59:48.318Z,94.80
2018-06-17T08:02:17.022Z,94.90
2018-06-17T08:04:45.537Z,94.00
2018-06-17T08:07:14.530Z,94.10
2018-06-17T08:09:43.032Z,93.40
2018-06-17T08:12:12.807Z,93.50
2018-06-17T08:14:41.954Z,93.80
2018-06-17T08:17:11.092Z,92.20
2018-06-17T08:19:40.117Z,92.40
2018-06-17T08:22:08.589Z,90.60
2018-06-17T08:24:37.660Z,90.50
2018-06-17T08:27:06.235Z,92.10
2018-06-17T08:29:34.858Z,90.90
2018-06-17T08:32:03.932Z,88.00
2018-06-17T08:34:32.641Z,87.50
2018-06-17T08:37:01.156Z,87.50
2018-06-17T08:39:29.704Z,90.30
2018-06-17T08:41:58.290Z,87.50
2018-06-17T08:44:26.719Z,83.60
2018-06-17T08:46:55.272Z,85.80
2018-06-17T08:49:23.684Z,85.90
2018-06-17T08:51:52.225Z,87.00
2018-06-17T08:54:20.680Z,88.10
2018-06-17T08:56:49.136Z,83.70
2018-06-17T08:59:17.657Z,84.10
2018-06-17T09:01:46.305Z,83.50
2018-06-17T09:04:14.825Z,83.20
2018-06-17T09:06:43.361Z,82.60
2018-06-17T09:09:12.684Z,85.10
2018-06-17T09:11:41.198Z,86.60
2018-06-17T09:14:09.810Z,82.10
2018-06-17T09:16:38.252Z,80.30
2018-06-17T09:19:06.879Z,83.20
2018-06-17T09:21:35.403Z,80.00
2018-06-17T09:24:03.969Z,81.20
2018-06-17T09:26:32.638Z,79.00
2018-06-17T09:29:01.266Z,80.60
2018-06-17T09:31:29.859Z,84.40
2018-06-17T09:33:59.325Z,80.50
2018-06-17T09:36:28.629Z,80.90
2018-06-17T09:38:57.160Z,78.60
2018-06-17T09:41:25.746Z,79.40
2018-06-17T09:43:54.344Z,80.10
2018-06-17T09:46:22.850Z,79.40
2018-06-17T09:48:51.360Z,79.70
2018-06-17T09:51:20.071Z,80.40
2018-06-17T09:53:48.595Z,76.90
2018-06-17T09:56:17.048Z,75.60
2018-06-17T09:58:45.504Z,70.50
2018-06-17T10:01:14.125Z,73.90
2018-06-17T10:03:43.271Z,76.00
2018-06-17T10:06:11.796Z,78.30
2018-06-17T10:08:40.279Z,76.20
2018-06-17T10:11:09.012Z,75.90
2018-06-17T10:13:44.785Z,72.50
2018-06-17T10:16:13.876Z,73.30
2018-06-17T10:18:42.518Z,75.00
2018-06-17T10:21:11.056Z,73.60
2018-06-17T10:23:39.568Z,71.50
2018-06-17T10:26:08.085Z,76.60
2018-06-17T10:28:36.742Z,71.20
2018-06-17T10:31:06.274Z,73.10
2018-06-17T10:33:35.599Z,74.20
2018-06-17T10:36:04.128Z,74.20
2018-06-17T10:38:32.827Z,68.60
2018-06-17T10:41:01.487Z,70.40
2018-06-17T10:43:31.303Z,72.30
2018-06-17T10:46:00.399Z,72.00
2018-06-17T10:48:29.086Z,72.10
2018-06-17T10:50:57.592Z,73.60
2018-06-17T10:53:26.149Z,72.90
2018-06-17T10:55:54.862Z,72.10
2018-06-17T10:58:23.921Z,75.30
2018-06-17T11:00:52.415Z,73.90
2018-06-17T11:03:20.911Z,73.40
2018-06-17T11:05:49.364Z,71.20
2018-06-17T11:08:18.453Z,70.30
2018-06-17T11:10:46.928Z,69.20
2018-06-17T11:13:15.563Z,68.10
2018-06-17T11:15:44.075Z,70.40
2018-06-17T11:18:12.593Z,72.90
2018-06-17T11:20:41.197Z,73.90
2018-06-17T11:23:10.472Z,72.50
2018-06-17T11:25:39.058Z,73.30
2018-06-17T11:28:08.129Z,76.40
2018-06-17T11:30:37.383Z,76.40
2018-06-17T11:33:06.666Z,77.00
2018-06-17T11:35:35.209Z,76.50
2018-06-17T11:38:03.726Z,75.20
2018-06-17T11:40:32.475Z,76.30
2018-06-17T11:43:00.914Z,75.00
2018-06-17T11:45:29.456Z,75.40
2018-06-17T11:47:57.934Z,76.30
2018-06-17T11:50:27.175Z,77.80
2018-06-17T11:52:55.664Z,76.50
2018-06-17T11:57:52.572Z,76.80
2018-06-17T12:00:22.039Z,77.20
2018-06-17T12:02:50.519Z,77.80
2018-06-17T12:05:18.966Z,75.10
2018-06-17T12:07:47.570Z,75.20
2018-06-17T12:10:16.069Z,73.70
2018-06-17T12:12:44.553Z,72.60
2018-06-17T12:15:12.978Z,75.60
2018-06-17T12:17:41.701Z,74.30
2018-06-17T12:20:11.068Z,74.10
2018-06-17T12:22:39.671Z,74.00
2018-06-17T12:25:08.264Z,73.30
2018-06-17T12:27:36.847Z,74.20
2018-06-17T12:30:05.483Z,74.50
2018-06-17T12:32:33.939Z,73.30
2018-06-17T12:35:02.422Z,72.90
2018-06-17T12:37:30.870Z,76.70
2018-06-17T12:39:59.366Z,75.80
2018-06-17T12:42:27.862Z,75.00
2018-06-17T12:44:56.482Z,77.10
2018-06-17T12:47:24.931Z,78.10
2018-06-17T12:49:53.661Z,76.70
2018-06-17T12:52:22.220Z,76.20
2018-06-17T12:54:51.297Z,76.70
2018-06-17T12:57:19.756Z,78.90
2018-06-17T12:59:48.381Z,78.90
2018-06-17T13:02:16.916Z,73.80
2018-06-17T13:04:45.451Z,75.00
2018-06-17T13:07:14.055Z,76.30
2018-06-17T13:09:43.129Z,73.30
2018-06-17T13:12:11.774Z,73.40
2018-06-17T13:14:40.312Z,70.50
2018-06-17T13:17:09.372Z,68.70
2018-06-17T13:19:37.939Z,72.60
2018-06-17T13:22:06.834Z,70.70
2018-06-17T13:24:35.331Z,69.50
2018-06-17T13:27:03.874Z,70.00
2018-06-17T13:29:32.428Z,67.60
2018-06-17T13:32:00.995Z,67.20
2018-06-17T13:34:29.658Z,68.40
2018-06-17T13:36:58.188Z,67.80
2018-06-17T13:39:27.470Z,66.70
2018-06-17T13:41:55.959Z,68.80
2018-06-17T13:44:24.619Z,68.30
2018-06-17T13:46:53.181Z,68.30
2018-06-17T13:49:21.666Z,70.20
2018-06-17T13:51:52.982Z,73.10
2018-06-17T13:54:21.458Z,71.30
2018-06-17T13:56:49.987Z,72.30
2018-06-17T13:59:18.473Z,70.80
2018-06-17T14:01:47.072Z,74.30
2018-06-17T14:04:15.611Z,71.20
2018-06-17T14:06:44.096Z,70.00
2018-06-17T14:09:12.526Z,69.50
2018-06-17T14:11:41.570Z,69.20
2018-06-17T14:14:10.090Z,68.80
2018-06-17T14:16:38.851Z,71.90
2018-06-17T14:21:35.449Z,72.20
2018-06-17T14:24:03.999Z,73.70
2018-06-17T14:26:32.536Z,74.00
2018-06-17T14:29:01.050Z,75.20
2018-06-17T14:31:30.305Z,76.70
2018-06-17T14:33:58.773Z,76.10
2018-06-17T14:36:27.834Z,76.40
2018-06-17T14:38:56.363Z,78.20
2018-06-17T14:41:24.793Z,76.20
2018-06-17T14:43:58.961Z,75.90
2018-06-17T14:46:32.781Z,73.10
2018-06-17T14:49:06.375Z,71.80
2018-06-17T14:51:40.727Z,74.20
2018-06-17T14:54:09.283Z,74.40
2018-06-17T14:56:37.802Z,74.40
2018-06-17T14:59:06.338Z,74.00
2018-06-17T15:01:34.873Z,74.10
2018-06-17T15:04:04.032Z,75.00
2018-06-17T15:06:32.537Z,75.40
2018-06-17T15:09:01.049Z,75.90
2018-06-17T15:11:29.648Z,77.10
2018-06-17T15:13:58.045Z,78.00
2018-06-17T15:16:26.509Z,79.20
2018-06-17T15:18:54.952Z,81.40
2018-06-17T15:21:23.404Z,80.80
2018-06-17T15:23:52.771Z,79.60
2018-06-17T15:26:21.300Z,79.70
2018-06-17T15:28:49.862Z,79.70
2018-06-17T15:31:24.243Z,79.50
2018-06-17T15:33:58.080Z,80.30
2018-06-17T15:36:31.783Z,78.80
2018-06-17T15:39:04.431Z,80.00
2018-06-17T15:41:32.942Z,80.80
2018-06-17T15:44:01.397Z,81.70
2018-06-17T15:46:29.846Z,81.00
2018-06-17T15:48:58.321Z,82.50
2018-06-17T15:51:27.073Z,82.20
2018-06-17T15:53:56.187Z,82.70
2018-06-17T15:56:24.769Z,81.30
2018-06-17T15:58:53.248Z,81.90
2018-06-17T16:01:21.730Z,81.50
2018-06-17T16:03:50.262Z,81.20
2018-06-17T16:06:19.058Z,82.00
2018-06-17T16:08:47.484Z,82.70
2018-06-17T16:11:16.023Z,83.90
2018-06-17T16:13:49.993Z,84.40
2018-06-17T16:16:23.685Z,85.20
2018-06-17T16:18:57.362Z,84.40
2018-06-17T16:21:25.907Z,83.30
2018-06-17T16:23:54.866Z,83.30
2018-06-17T16:26:23.312Z,84.50
2018-06-17T16:28:51.805Z,83.40
2018-06-17T16:31:20.301Z,84.30
2018-06-17T16:33:48.788Z,84.30
2018-06-17T16:36:17.272Z,83.50
2018-06-17T16:38:45.900Z,82.60
2018-06-17T16:41:14.368Z,85.40
2018-06-17T16:43:42.850Z,85.10
2018-06-17T16:46:11.354Z,84.10
2018-06-17T16:48:39.930Z,85.40
2018-06-17T16:53:19.074Z,85.30
2018-06-17T16:55:52.865Z,86.30
2018-06-17T16:58:26.752Z,86.60
2018-06-17T17:00:55.392Z,86.40
2018-06-17T17:03:23.970Z,86.50
2018-06-17T17:05:52.587Z,86.80
2018-06-17T17:08:21.122Z,85.60
2018-06-17T17:10:49.686Z,85.50
2018-06-17T17:13:18.441Z,86.30
2018-06-17T17:15:47.179Z,85.00
2018-06-17T17:18:15.661Z,85.90
2018-06-17T17:20:44.246Z,83.90
2018-06-17T17:23:12.822Z,85.10
2018-06-17T17:25:41.268Z,84.60
2018-06-17T17:28:09.842Z,85.00
2018-06-17T17:30:39.233Z,83.60
2018-06-17T17:33:13.147Z,85.10
2018-06-17T17:35:47.393Z,85.40
2018-06-17T17:38:21.151Z,85.70
2018-06-17T17:40:52.830Z,86.10
2018-06-17T17:43:21.372Z,85.80
2018-06-17T17:45:55.038Z,86.20
2018-06-17T17:48:23.513Z,86.20
2018-06-17T17:50:52.011Z,85.90
2018-06-17T17:53:20.538Z,86.10
2018-06-17T17:55:48.978Z,85.70
2018-06-17T17:58:17.463Z,87.70
2018-06-17T18:00:45.956Z,87.60
2018-06-17T18:03:14.602Z,87.10
2018-06-17T18:05:43.220Z,87.70
2018-06-17T18:08:11.935Z,87.50
2018-06-17T18:10:40.439Z,87.80
2018-06-17T18:13:09.736Z,88.20
2018-06-17T18:15:38.229Z,88.40
2018-06-17T18:18:06.682Z,88.40
2018-06-17T18:20:35.362Z,89.40
2018-06-17T18:23:03.888Z,89.30
2018-06-17T18:25:37.657Z,90.00
2018-06-17T18:28:11.791Z,90.00
2018-06-17T18:30:45.492Z,90.20
2018-06-17T18:33:19.174Z,90.20
2018-06-17T18:35:53.077Z,90.30
2018-06-17T18:38:21.608Z,90.70
2018-06-17T18:40:50.565Z,90.70
2018-06-17T18:43:19.010Z,90.70
2018-06-17T18:45:48.416Z,90.60
2018-06-17T18:48:16.901Z,90.60
2018-06-17T18:50:45.661Z,90.00
2018-06-17T18:53:19.370Z,90.10
2018-06-17T18:55:47.875Z,89.70
2018-06-17T18:58:16.591Z,89.10
2018-06-17T19:00:46.040Z,90.10
2018-06-17T19:03:14.489Z,90.20
2018-06-17T19:05:43.180Z,89.60
2018-06-17T19:08:16.997Z,90.20
2018-06-17T19:10:50.948Z,90.20
2018-06-17T19:13:25.480Z,90.30
2018-06-17T19:15:59.384Z,90.60
2018-06-17T19:18:28.412Z,90.60
2018-06-17T19:20:57.619Z,90.50
2018-06-17T19:23:26.046Z,90.90
2018-06-17T19:25:54.870Z,90.90
2018-06-17T19:28:23.340Z,91.50
2018-06-17T19:30:51.886Z,91.30
2018-06-17T19:33:20.386Z,91.30
2018-06-17T19:35:49.048Z,91.20
2018-06-17T19:38:17.575Z,91.60
2018-06-17T19:40:46.156Z,91.60
2018-06-17T19:43:14.755Z,91.80
2018-06-17T19:45:43.239Z,91.90
2018-06-17T19:48:12.427Z,91.80
2018-06-17T19:50:46.212Z,92.10
2018-06-17T19:53:20.075Z,92.40
2018-06-17T19:55:53.847Z,92.60
2018-06-17T19:58:27.721Z,92.70
2018-06-17T20:00:58.572Z,92.20
2018-06-17T20:03:27.079Z,92.10
2018-06-17T20:05:55.587Z,92.10
2018-06-17T20:08:24.100Z,92.20
2018-06-17T20:10:52.737Z,92.20
2018-06-17T20:13:21.314Z,92.20
2018-06-17T20:15:49.993Z,92.20
2018-06-17T20:18:18.527Z,92.20
2018-06-17T20:20:47.029Z,92.50
2018-06-17T20:23:15.661Z,92.60
2018-06-17T20:25:44.166Z,92.70
2018-06-17T20:28:12.666Z,92.60
2018-06-17T20:30:41.198Z,92.70
2018-06-17T20:33:14.949Z,93.10
2018-06-17T20:35:48.695Z,92.80
2018-06-17T20:38:22.308Z,92.90
2018-06-17T20:40:56.041Z,93.50
2018-06-17T20:43:30.528Z,93.00
2018-06-17T20:45:59.466Z,93.10
2018-06-17T20:48:27.953Z,93.40
2018-06-17T20:50:56.441Z,93.50
2018-06-17T20:53:24.998Z,93.70
2018-06-17T20:55:53.618Z,93.70
2018-06-17T20:58:22.048Z,93.90
2018-06-17T21:00:50.536Z,94.00
2018-06-17T21:03:19.191Z,94.40
2018-06-17T21:05:48.297Z,93.80
2018-06-17T21:08:16.901Z,93.70
2018-06-17T21:10:45.450Z,93.70
2018-06-17T21:13:14.102Z,93.80
2018-06-17T21:15:42.749Z,94.10
2018-06-17T21:18:11.202Z,94.60
2018-06-17T21:20:44.949Z,94.60
2018-06-17T21:23:18.855Z,94.60
2018-06-17T21:25:52.757Z,94.90
2018-06-17T21:28:22.073Z,95.20
2018-06-17T21:30:50.582Z,95.60
2018-06-17T21:33:19.173Z,95.80
2018-06-17T21:35:47.677Z,96.20
2018-06-17T21:38:16.209Z,95.90
2018-06-17T21:40:45.450Z,96.00
2018-06-17T21:43:14.498Z,96.20
2018-06-17T21:45:43.039Z,96.30
2018-06-17T21:48:12.341Z,96.30
2018-06-17T21:50:41.030Z,96.20
2018-06-17T21:53:09.587Z,96.30
2018-06-17T21:55:38.625Z,96.20
2018-06-17T21:58:07.184Z,96.10
2018-06-17T22:00:35.763Z,96.10
2018-06-17T22:03:04.305Z,95.70
2018-06-17T22:05:32.822Z,95.60
2018-06-17T22:08:06.554Z,95.60
2018-06-17T22:10:40.937Z,95.80
2018-06-17T22:13:09.561Z,95.90
2018-06-17T22:15:44.898Z,96.10
2018-06-17T22:18:14.555Z,96.00
2018-06-17T22:20:43.161Z,96.20
2018-06-17T22:23:11.833Z,96.30
2018-06-17T22:25:40.531Z,96.30
2018-06-17T22:28:09.135Z,96.50
2018-06-17T22:30:37.767Z,96.50
2018-06-17T22:33:06.338Z,96.60
2018-06-17T22:35:34.907Z,96.70
2018-06-17T22:38:04.442Z,96.90
2018-06-17T22:40:32.934Z,97.30
2018-06-17T22:43:02.214Z,97.50
2018-06-17T22:45:30.711Z,97.70
2018-06-17T22:48:00.368Z,97.90
2018-06-17T22:50:28.858Z,97.60
2018-06-17T22:53:08.481Z,97.50
2018-06-17T22:55:37.038Z,97.80
2018-06-17T22:58:10.710Z,97.90
2018-06-17T23:00:44.728Z,98.10
2018-06-17T23:03:18.944Z,98.20
2018-06-17T23:05:52.834Z,98.00
2018-06-17T23:08:27.313Z,98.00
2018-06-17T23:10:56.290Z,97.90
2018-06-17T23:13:25.538Z,97.80
2018-06-17T23:15:54.964Z,97.90
2018-06-17T23:18:23.924Z,97.90
2018-06-17T23:20:52.543Z,97.50
2018-06-17T23:23:21.097Z,97.60
2018-06-17T23:25:49.666Z,97.70
2018-06-17T23:28:18.191Z,97.90
2018-06-17T23:30:46.898Z,97.80
2018-06-17T23:33:15.341Z,97.60
2018-06-17T23:35:44.090Z,97.90
2018-06-17T23:38:12.817Z,97.60
2018-06-17T23:40:41.414Z,97.70
2018-06-17T23:43:09.948Z,98.40
2018-06-17T23:45:43.599Z,97.90
2018-06-17T23:48:17.296Z,97.80
2018-06-17T23:52:52.249Z,97.70
2018-06-17T23:55:26.101Z,97.50
2018-06-17T23:57:54.613Z,97.40
